Time;durP1;ratioP1;P1;durP2;ratioP2;P2;SDS_P1;SDS_P2;PMS_P1;PMS_P2;Temp;Humidity;BMP_temperature;BMP_pressure;BME280_temperature;BME280_humidity;BME280_pressure;Samples;Min_cycle;Max_cycle;Signal;HPM_P1;HPM_P2
2022/09/21 00:01:12;;;;;;;9.10;5.47;;;;;;;8.81;100.00;102608.22;5013397;28;20029;-71
2022/09/21 00:03:40;;;;;;;8.88;5.32;;;;;;;8.72;100.00;102611.59;5013516;28;20093;-71
2022/09/21 00:06:09;;;;;;;9.43;5.20;;;;;;;8.66;100.00;102606.31;5013769;28;20092;-71
2022/09/21 00:08:35;;;;;;;9.90;4.93;;;;;;;8.58;100.00;102602.75;5012661;28;20030;-71
2022/09/21 00:11:00;;;;;;;10.75;4.82;;;;;;;8.55;100.00;102605.31;5013521;28;20148;-71
2022/09/21 00:13:27;;;;;;;9.70;4.35;;;;;;;8.49;100.00;102613.88;5013387;28;20096;-71
2022/09/21 00:15:56;;;;;;;10.38;5.22;;;;;;;8.43;100.00;102611.19;5012989;28;20025;-71
2022/09/21 00:18:22;;;;;;;11.13;5.80;;;;;;;8.36;100.00;102615.41;5012501;28;20129;-71
2022/09/21 00:20:48;;;;;;;11.15;5.53;;;;;;;8.32;100.00;102612.75;5013476;28;20061;-71
2022/09/21 00:23:13;;;;;;;12.73;6.38;;;;;;;8.29;100.00;102621.38;5012717;28;20088;-71
2022/09/21 00:25:39;;;;;;;12.38;5.72;;;;;;;8.22;100.00;102611.75;5013107;28;20021;-71
2022/09/21 00:28:04;;;;;;;14.70;5.85;;;;;;;8.25;100.00;102619.59;5013333;28;20121;-71
2022/09/21 00:30:30;;;;;;;10.15;5.47;;;;;;;8.25;100.00;102617.00;5012315;28;20030;-71
2022/09/21 00:32:56;;;;;;;13.43;5.90;;;;;;;8.24;100.00;102624.75;5013174;28;20025;-71
2022/09/21 00:35:21;;;;;;;10.32;5.57;;;;;;;8.16;100.00;102612.53;5013169;28;20021;-71
2022/09/21 00:37:47;;;;;;;9.80;5.85;;;;;;;8.19;100.00;102619.50;5012618;28;20104;-71
2022/09/21 00:40:12;;;;;;;7.63;5.38;;;;;;;8.17;100.00;102624.69;5013153;28;20113;-71
2022/09/21 00:42:38;;;;;;;13.88;5.57;;;;;;;8.15;100.00;102628.09;5013027;28;20017;-71
2022/09/21 00:45:05;;;;;;;8.48;5.93;;;;;;;8.15;100.00;102623.78;5012614;28;20112;-71
2022/09/21 00:47:35;;;;;;;9.38;6.07;;;;;;;8.11;100.00;102619.41;5012823;28;20026;-71
2022/09/21 00:50:07;;;;;;;10.85;5.88;;;;;;;7.95;100.00;102599.22;5013089;28;20030;-71
2022/09/21 00:52:36;;;;;;;9.48;5.82;;;;;;;8.03;100.00;102627.91;5012185;28;20096;-71
2022/09/21 00:55:27;;;;;;;7.95;5.85;;;;;;;8.05;100.00;102626.22;5012999;28;20041;-71
2022/09/21 00:57:58;;;;;;;14.05;6.03;;;;;;;8.06;100.00;102627.97;5012560;28;20032;-71
2022/09/21 01:00:24;;;;;;;11.15;5.57;;;;;;;7.95;100.00;102609.63;5012415;28;20102;-71
2022/09/21 01:02:50;;;;;;;9.13;5.72;;;;;;;8.07;100.00;102625.38;5012936;28;20109;-71
2022/09/21 01:05:15;;;;;;;11.57;6.25;;;;;;;8.05;100.00;102618.44;5012458;28;20022;-71
2022/09/21 01:07:45;;;;;;;8.32;5.80;;;;;;;8.05;100.00;102621.91;5012340;28;20048;-71
2022/09/21 01:10:15;;;;;;;9.10;6.07;;;;;;;8.01;100.00;102617.50;5013118;28;20030;-71
2022/09/21 01:13:08;;;;;;;11.48;6.32;;;;;;;8.07;100.00;102624.50;5012155;28;20030;-71
2022/09/21 01:15:34;;;;;;;9.95;5.45;;;;;;;8.02;100.00;102624.44;5012288;28;20374;-71
2022/09/21 01:18:24;;;;;;;11.20;5.88;;;;;;;8.01;100.00;102620.09;5013098;28;20073;-71
2022/09/21 01:20:59;;;;;;;7.85;5.60;;;;;;;8.05;100.00;102628.81;5012684;28;20054;-71
2022/09/21 01:24:00;;;;;;;10.00;5.80;;;;;;;8.01;100.00;102619.22;5012430;28;20032;-71
2022/09/21 01:26:36;;;;;;;8.27;5.45;;;;;;;8.05;100.00;102629.69;5012074;28;20025;-71
2022/09/21 01:29:37;;;;;;;10.13;5.40;;;;;;;8.07;100.00;102625.38;5012496;28;20038;-71
2022/09/21 01:32:25;;;;;;;9.18;5.65;;;;;;;8.06;100.00;102628.81;5016632;28;20505;-71
2022/09/21 01:35:00;;;;;;;11.80;5.82;;;;;;;8.02;100.00;102619.25;5016525;28;20065;-71
2022/09/21 01:37:36;;;;;;;11.15;6.72;;;;;;;8.09;100.00;102622.81;5016412;28;20022;-71
2022/09/21 01:40:08;;;;;;;9.07;6.07;;;;;;;8.14;100.00;102619.44;5015974;28;20030;-71
2022/09/21 01:42:35;;;;;;;10.90;6.35;;;;;;;8.12;100.00;102615.94;5015968;28;20026;-71
2022/09/21 01:45:05;;;;;;;10.85;6.38;;;;;;;8.15;100.00;102623.78;5016520;28;20029;-71
2022/09/21 01:47:33;;;;;;;10.82;5.93;;;;;;;8.17;100.00;102618.59;5015656;28;20365;-71
2022/09/21 01:50:02;;;;;;;8.40;5.95;;;;;;;8.16;100.00;102617.72;5016008;28;20176;-71
2022/09/21 01:52:36;;;;;;;10.80;5.80;;;;;;;8.13;100.00;102603.81;5015766;28;20042;-71
2022/09/21 01:55:14;;;;;;;8.98;6.50;;;;;;;8.17;100.00;102616.00;5015589;28;20473;-71
2022/09/21 01:57:46;;;;;;;8.68;6.38;;;;;;;8.13;100.00;102611.59;5015907;28;20021;-71
2022/09/21 02:00:12;;;;;;;18.60;7.78;;;;;;;8.11;100.00;102614.19;5016088;28;20494;-71
2022/09/21 02:02:45;;;;;;;9.82;6.20;;;;;;;8.10;100.00;102608.97;5015322;28;20107;-71
2022/09/21 02:05:11;;;;;;;10.57;6.00;;;;;;;8.09;100.00;102615.88;5015825;28;20497;-71
2022/09/21 02:07:38;;;;;;;7.30;5.68;;;;;;;8.12;100.00;102620.25;5015296;28;20037;-71
2022/09/21 02:10:07;;;;;;;7.53;5.70;;;;;;;8.03;100.00;102605.41;5015793;28;20033;-71
2022/09/21 02:12:32;;;;;;;9.50;5.75;;;;;;;8.06;100.00;102615.84;5015697;28;20030;-71
2022/09/21 02:14:59;;;;;;;10.05;6.05;;;;;;;8.01;100.00;102611.41;5015482;28;20026;-71
2022/09/21 02:17:59;;;;;;;10.05;6.45;;;;;;;8.00;100.00;102614.88;5015329;28;20032;-71
2022/09/21 02:20:25;;;;;;;8.57;6.03;;;;;;;7.95;100.00;102615.69;5015467;28;20461;-71
2022/09/21 02:23:24;;;;;;;11.00;5.75;;;;;;;7.90;100.00;102611.25;5015341;28;20041;-71
2022/09/21 02:25:53;;;;;;;7.88;5.32;;;;;;;7.85;100.00;102618.13;5015423;28;20033;-71
2022/09/21 02:28:50;;;;;;;10.93;6.15;;;;;;;7.77;100.00;102617.97;5015545;28;20060;-71
2022/09/21 02:31:24;;;;;;;11.05;5.50;;;;;;;7.70;100.00;102623.91;5006977;28;20428;-71
2022/09/21 02:34:01;;;;;;;10.05;5.80;;;;;;;7.62;100.00;102616.00;5015590;28;20438;-71
2022/09/21 02:36:42;;;;;;;9.57;6.30;;;;;;;7.61;100.00;102618.56;5014624;28;20026;-71
2022/09/21 02:39:19;;;;;;;10.48;6.38;;;;;;;7.55;100.00;102621.91;5015149;28;20026;-71
2022/09/21 02:42:13;;;;;;;11.25;5.30;;;;;;;7.50;100.00;102615.78;5014346;28;20030;-71
2022/09/21 02:44:44;;;;;;;11.68;5.82;;;;;;;7.48;100.00;102613.16;5012926;28;20087;-71
2022/09/21 02:47:18;;;;;;;9.45;5.32;;;;;;;7.43;100.00;102609.63;5015070;28;20026;-70
2022/09/21 02:49:50;;;;;;;9.82;5.28;;;;;;;7.41;100.00;102615.63;5014984;28;20029;-71
2022/09/21 02:52:17;;;;;;;9.10;5.47;;;;;;;7.35;100.00;102607.72;5014890;28;20045;-71
2022/09/21 02:54:47;;;;;;;10.45;5.43;;;;;;;7.35;100.00;102610.31;5014943;28;20105;-70
2022/09/21 02:57:15;;;;;;;7.72;5.63;;;;;;;7.35;100.00;102610.31;5014593;28;20026;-71
2022/09/21 02:59:41;;;;;;;9.32;5.63;;;;;;;7.32;100.00;102611.13;5014741;28;20026;-71
2022/09/21 03:02:08;;;;;;;8.75;5.38;;;;;;;7.29;100.00;102608.47;5015193;28;20024;-71
2022/09/21 03:04:34;;;;;;;9.25;6.07;;;;;;;7.27;100.00;102607.59;5014183;28;20053;-71
2022/09/21 03:06:59;;;;;;;10.70;6.18;;;;;;;7.27;100.00;102616.25;5014743;28;20804;-71
2022/09/21 03:09:24;;;;;;;7.85;6.03;;;;;;;7.26;100.00;102614.50;5014406;28;20088;-70
2022/09/21 03:11:50;;;;;;;9.45;6.30;;;;;;;7.26;100.00;102618.81;5014075;28;20113;-71
2022/09/21 03:14:18;;;;;;;8.10;5.78;;;;;;;7.21;100.00;102616.13;5014902;28;20044;-71
2022/09/21 03:16:43;;;;;;;9.90;6.10;;;;;;;7.21;100.00;102615.25;5014538;28;20029;-71
2022/09/21 03:19:09;;;;;;;8.57;6.22;;;;;;;7.13;100.00;102609.94;5014171;28;20071;-71
2022/09/21 03:21:35;;;;;;;10.50;6.60;;;;;;;7.16;100.00;102624.66;5014227;28;20097;-70
2022/09/21 03:24:01;;;;;;;9.68;6.53;;;;;;;7.11;100.00;102611.63;5014548;28;20109;-71
2022/09/21 03:26:26;;;;;;;9.50;6.25;;;;;;;7.14;100.00;102621.19;5013734;28;20026;-71
2022/09/21 03:28:53;;;;;;;8.05;5.93;;;;;;;7.11;100.00;102618.53;5014082;28;20100;-71
2022/09/21 03:31:19;;;;;;;16.13;6.60;;;;;;;7.08;100.00;102616.75;5014375;28;20493;-71
2022/09/21 03:33:48;;;;;;;11.20;6.10;;;;;;;7.02;100.00;102614.91;5013710;28;20026;-70
2022/09/21 03:36:13;;;;;;;11.27;5.80;;;;;;;7.02;100.00;102614.91;5014159;28;20049;-71
2022/09/21 03:38:39;;;;;;;8.15;6.00;;;;;;;7.05;100.00;102632.25;5013989;28;20470;-71
2022/09/21 03:41:05;;;;;;;11.80;6.50;;;;;;;6.98;100.00;102614.81;5013299;28;20497;-71
2022/09/21 03:43:31;;;;;;;7.20;6.38;;;;;;;6.96;100.00;102626.88;5014130;28;20057;-71
2022/09/21 03:45:56;;;;;;;7.50;5.88;;;;;;;6.95;100.00;102628.59;5014317;28;20469;-71
2022/09/21 03:48:24;;;;;;;7.63;6.05;;;;;;;6.92;100.00;102625.06;5013256;28;20033;-71
2022/09/21 03:50:50;;;;;;;10.57;6.38;;;;;;;6.90;100.00;102635.41;5013958;28;20470;-71
2022/09/21 03:53:16;;;;;;;8.48;6.40;;;;;;;6.90;100.00;102639.69;5013258;28;20050;-71
2022/09/21 03:55:42;;;;;;;9.73;6.47;;;;;;;6.83;100.00;102630.94;5013312;28;20026;-71
2022/09/21 03:58:08;;;;;;;10.43;6.45;;;;;;;6.90;100.00;102639.69;5013852;28;20393;-71
2022/09/21 04:00:34;;;;;;;12.18;6.53;;;;;;;6.86;100.00;102627.53;5013257;28;20030;-70
2022/09/21 04:03:00;;;;;;;8.75;6.28;;;;;;;6.91;100.00;102633.69;5013727;28;20029;-71
2022/09/21 04:05:26;;;;;;;8.75;6.13;;;;;;;6.90;100.00;102629.34;5013445;28;20022;-71
2022/09/21 04:07:53;;;;;;;9.35;6.22;;;;;;;6.85;100.00;102631.84;5013196;28;20101;-71
2022/09/21 04:10:22;;;;;;;8.50;6.25;;;;;;;6.88;100.00;102628.44;5013214;28;20040;-70
2022/09/21 04:12:48;;;;;;;10.15;6.47;;;;;;;6.96;100.00;102637.25;5013768;28;20029;-71
2022/09/21 04:15:17;;;;;;;10.15;6.95;;;;;;;6.96;100.00;102638.09;5013212;28;20022;-71
2022/09/21 04:17:43;;;;;;;13.13;6.60;;;;;;;6.97;100.00;102636.41;5013237;28;20034;-71
2022/09/21 04:20:08;;;;;;;8.93;6.43;;;;;;;6.92;100.00;102633.72;5013531;28;20024;-71
2022/09/21 04:22:35;;;;;;;10.95;6.55;;;;;;;6.92;100.00;102630.25;5012576;28;20021;-71
2022/09/21 04:25:01;;;;;;;9.43;6.60;;;;;;;6.97;100.00;102634.69;5013472;28;20044;-71
2022/09/21 04:27:26;;;;;;;7.97;6.80;;;;;;;6.94;100.00;102628.56;5013284;28;20563;-71
2022/09/21 04:29:52;;;;;;;10.10;6.22;;;;;;;6.98;100.00;102643.34;5012795;28;20030;-71
2022/09/21 04:32:18;;;;;;;9.23;6.60;;;;;;;6.99;100.00;102637.31;5013182;28;20046;-71
2022/09/21 04:34:43;;;;;;;11.55;6.90;;;;;;;6.91;100.00;102626.78;5013062;28;20481;-70
2022/09/21 04:37:11;;;;;;;12.18;6.72;;;;;;;6.99;100.00;102635.56;5012759;28;20034;-71
2022/09/21 04:39:37;;;;;;;11.95;7.05;;;;;;;6.98;100.00;102630.38;5013176;28;20036;-71
2022/09/21 04:42:03;;;;;;;9.10;6.43;;;;;;;6.95;100.00;102638.09;5013069;28;20030;-71
2022/09/21 04:44:29;;;;;;;10.13;6.63;;;;;;;6.95;100.00;102638.97;5012405;28;20048;-71
2022/09/21 04:46:55;;;;;;;11.63;6.82;;;;;;;6.94;100.00;102644.13;5013233;28;20526;-70
2022/09/21 04:49:21;;;;;;;11.77;6.60;;;;;;;6.94;100.00;102649.31;5012279;28;20076;-71
2022/09/21 04:51:46;;;;;;;12.23;6.97;;;;;;;6.91;100.00;102639.75;5012604;28;20501;-71
2022/09/21 04:54:12;;;;;;;14.52;6.55;;;;;;;6.83;100.00;102628.34;5013308;28;20033;-71
2022/09/21 04:56:38;;;;;;;10.32;6.78;;;;;;;6.95;100.00;102649.34;5012322;28;20034;-71
2022/09/21 04:59:03;;;;;;;8.32;6.40;;;;;;;6.96;100.00;102648.47;5012968;28;20530;-71
2022/09/21 05:01:29;;;;;;;7.47;6.45;;;;;;;6.97;100.00;102650.25;5012674;28;20029;-71
2022/09/21 05:04:00;;;;;;;9.95;6.80;;;;;;;6.97;100.00;102650.25;5012443;28;20125;-71
2022/09/21 05:06:29;;;;;;;10.65;6.35;;;;;;;6.97;100.00;102649.38;5018221;28;20147;-71
2022/09/21 05:11:39;;;;;;;11.38;6.80;;;;;;;6.93;100.00;102648.44;5018956;28;20124;-71
2022/09/21 05:14:05;;;;;;;9.88;6.72;;;;;;;6.92;100.00;102651.88;5019207;28;20117;-71
2022/09/21 05:16:31;;;;;;;11.77;7.30;;;;;;;6.91;100.00;102652.72;5019094;28;20038;-71
2022/09/21 05:18:56;;;;;;;11.63;7.05;;;;;;;6.90;100.00;102645.78;5018816;28;20053;-71
2022/09/21 05:21:21;;;;;;;13.05;8.27;;;;;;;6.93;100.00;102647.53;5019187;28;20406;-71
2022/09/21 05:23:47;;;;;;;10.32;7.70;;;;;;;6.95;100.00;102651.94;5019348;28;20398;-71
2022/09/21 05:26:12;;;;;;;12.43;7.50;;;;;;;6.98;100.00;102656.31;5018853;28;20033;-71
2022/09/21 05:28:38;;;;;;;11.48;7.63;;;;;;;6.96;100.00;102652.78;5018741;28;20367;-71
2022/09/21 05:31:15;;;;;;;12.70;7.90;;;;;;;6.98;100.00;102662.38;5019107;28;20036;-71
2022/09/21 05:33:49;;;;;;;9.93;7.85;;;;;;;6.90;100.00;102644.88;5018231;28;20025;-71
2022/09/21 05:36:31;;;;;;;10.35;7.70;;;;;;;6.97;100.00;102665.81;5019167;28;20482;-71
2022/09/21 05:38:57;;;;;;;11.18;7.35;;;;;;;6.99;100.00;102669.28;5018789;28;20108;-71
2022/09/21 05:41:22;;;;;;;10.02;7.40;;;;;;;6.93;100.00;102661.41;5018685;28;20080;-71
2022/09/21 05:43:48;;;;;;;12.32;7.63;;;;;;;6.97;100.00;102664.94;5019023;28;20022;-70
2022/09/21 05:46:19;;;;;;;13.80;8.30;;;;;;;7.06;100.00;102674.59;5018523;28;20041;-71
2022/09/21 05:49:12;;;;;;;15.68;8.45;;;;;;;7.10;100.00;102674.72;5018508;28;20022;-71
2022/09/21 05:52:02;;;;;;;11.57;8.73;;;;;;;7.13;100.00;102677.38;5018730;28;20058;-71
2022/09/21 05:54:47;;;;;;;13.98;8.57;;;;;;;7.21;100.00;102674.91;5017931;28;20033;-71
2022/09/21 05:57:42;;;;;;;13.80;8.43;;;;;;;7.28;100.00;102677.66;5019245;28;20048;-71
2022/09/21 06:00:13;;;;;;;11.85;7.85;;;;;;;7.31;100.00;102678.56;5018618;28;20065;-71
2022/09/21 06:03:16;;;;;;;12.60;7.70;;;;;;;7.32;100.00;102680.31;5018486;28;20030;-71
2022/09/21 06:05:42;;;;;;;11.27;7.22;;;;;;;7.29;100.00;102681.13;5018843;28;20030;-71
2022/09/21 06:08:08;;;;;;;12.15;7.47;;;;;;;7.26;100.00;102691.47;5018454;28;20029;-71
2022/09/21 06:10:34;;;;;;;12.13;7.80;;;;;;;7.23;100.00;102694.00;5018387;28;20072;-70
2022/09/21 06:12:59;;;;;;;12.02;8.23;;;;;;;7.20;100.00;102683.56;5018335;28;20044;-71
2022/09/21 06:15:25;;;;;;;12.75;8.25;;;;;;;7.18;100.00;102683.50;5017759;28;20022;-71
2022/09/21 06:17:50;;;;;;;16.60;9.23;;;;;;;7.18;100.00;102688.69;5015103;28;20034;-71
2022/09/21 06:20:16;;;;;;;20.13;9.93;;;;;;;7.21;100.00;102690.50;5015714;28;20026;-71
2022/09/21 06:22:41;;;;;;;16.20;9.02;;;;;;;7.23;100.00;102696.59;5014847;28;20022;-71
2022/09/21 06:25:06;;;;;;;21.27;10.73;;;;;;;7.25;100.00;102692.28;5015871;28;20044;-71
2022/09/21 06:27:32;;;;;;;20.65;12.35;;;;;;;7.28;100.00;102698.41;5015328;28;20030;-71
2022/09/21 06:29:57;;;;;;;23.00;14.20;;;;;;;7.35;100.00;102701.13;5014688;28;20029;-71
2022/09/21 06:32:23;;;;;;;23.25;14.35;;;;;;;7.30;100.00;102680.28;5015478;28;20030;-72
2022/09/21 06:34:48;;;;;;;21.77;14.48;;;;;;;7.45;100.00;102698.72;5015407;28;20065;-72
2022/09/21 06:37:14;;;;;;;32.67;16.10;;;;;;;7.52;100.00;102686.78;5015325;28;20022;-72
2022/09/21 06:39:40;;;;;;;23.95;16.58;;;;;;;7.62;100.00;102688.69;5015191;28;20371;-72
2022/09/21 06:42:05;;;;;;;24.38;15.38;;;;;;;7.68;100.00;102690.50;5014944;28;20018;-72
2022/09/21 06:44:31;;;;;;;26.45;15.90;;;;;;;7.73;100.00;102692.34;5014696;28;20079;-72
2022/09/21 06:46:56;;;;;;;29.77;17.92;;;;;;;7.82;100.00;102690.78;5015378;28;20022;-72
2022/09/21 06:49:21;;;;;;;26.88;16.60;;;;;;;7.85;100.00;102688.22;5014452;28;20062;-72
2022/09/21 06:51:47;;;;;;;26.35;16.92;;;;;;;7.96;100.00;102689.28;5014931;28;20482;-72
2022/09/21 06:54:12;;;;;;;27.13;17.40;;;;;;;8.07;100.00;102684.25;5015101;28;20036;-72
2022/09/21 06:56:38;;;;;;;34.10;16.35;;;;;;;8.14;100.00;102692.19;5014257;28;20473;-72
2022/09/21 06:59:03;;;;;;;30.30;16.70;;;;;;;8.27;100.00;102692.34;5014719;28;20116;-72
2022/09/21 07:01:28;;;;;;;27.05;16.17;;;;;;;8.35;100.00;102699.44;5014875;28;20026;-72
2022/09/21 07:03:54;;;;;;;24.73;14.90;;;;;;;8.48;100.00;102697.06;5014687;28;20156;-72
2022/09/21 07:06:22;;;;;;;22.48;14.82;;;;;;;8.57;100.00;102689.41;5014858;28;20405;-72
2022/09/21 07:08:52;;;;;;;26.13;15.13;;;;;;;8.79;100.00;102700.94;5014868;28;20037;-72
2022/09/21 07:11:18;;;;;;;26.33;14.15;;;;;;;8.91;100.00;102695.91;5014067;28;20025;-72
2022/09/21 07:13:44;;;;;;;20.67;14.68;;;;;;;9.11;100.00;102701.38;5014576;28;20533;-72
2022/09/21 07:16:09;;;;;;;22.90;13.02;;;;;;;9.30;100.00;102695.53;5014748;28;20101;-72
2022/09/21 07:18:37;;;;;;;18.98;13.02;;;;;;;9.43;100.00;102693.94;5013769;28;20434;-72
2022/09/21 07:21:05;;;;;;;22.13;12.25;;;;;;;9.57;100.00;102689.75;5014641;28;20530;-72
2022/09/21 07:23:30;;;;;;;21.10;12.00;;;;;;;9.62;100.00;102687.19;5014366;28;20371;-72
2022/09/21 07:26:01;;;;;;;19.15;10.65;;;;;;;9.71;100.00;102686.41;5013741;28;20080;-72
2022/09/21 07:28:26;;;;;;;17.48;10.52;;;;;;;9.68;100.00;102673.34;5013914;28;20462;-72
2022/09/21 07:30:52;;;;;;;18.02;10.57;;;;;;;9.89;100.00;102696.13;5014513;28;20040;-72
2022/09/21 07:33:17;;;;;;;16.55;10.25;;;;;;;9.91;100.00;102683.97;5013676;28;20022;-72
2022/09/21 07:35:53;;;;;;;14.85;9.27;;;;;;;9.97;100.00;102694.44;5014079;28;20080;-72
2022/09/21 07:38:18;;;;;;;14.00;9.07;;;;;;;9.96;100.00;102683.16;5013713;28;20021;-72
2022/09/21 07:40:44;;;;;;;17.55;8.63;;;;;;;9.95;100.00;102684.03;5013805;28;20030;-72
2022/09/21 07:43:10;;;;;;;11.35;7.35;;;;;;;9.95;100.00;102684.03;5014329;28;20026;-72
2022/09/21 07:45:35;;;;;;;12.18;7.57;;;;;;;9.98;100.00;102686.66;5013002;28;20038;-72
2022/09/21 07:48:02;;;;;;;14.15;7.95;;;;;;;9.97;100.00;102679.72;5013978;28;20378;-72
2022/09/21 07:50:27;;;;;;;11.07;7.38;;;;;;;10.01;100.00;102678.00;5013808;28;20041;-72
2022/09/21 07:52:53;;;;;;;18.63;7.22;;;;;;;10.08;100.00;102688.47;5013228;28;20049;-72
2022/09/21 07:55:18;;;;;;;11.98;6.65;;;;;;;10.13;100.00;102690.25;5013683;28;20488;-72
2022/09/21 08:00:31;;;;;;;11.55;5.88;;;;;;;10.18;100.00;102679.00;5013297;28;20087;-72
2022/09/21 08:02:57;;;;;;;9.10;5.30;;;;;;;10.28;100.00;102686.06;5013646;28;20033;-72
2022/09/21 08:05:22;;;;;;;10.57;5.47;;;;;;;10.29;100.00;102676.50;5013677;28;20022;-72
2022/09/21 08:07:48;;;;;;;11.65;5.43;;;;;;;10.42;100.00;102673.09;5012832;28;20132;-72
2022/09/21 08:10:13;;;;;;;9.25;5.03;;;;;;;10.51;100.00;102678.38;5013483;28;20034;-72
2022/09/21 08:12:38;;;;;;;10.75;5.00;;;;;;;10.64;100.00;102681.94;5013501;28;20026;-72
2022/09/21 08:15:05;;;;;;;11.20;5.20;;;;;;;10.74;100.00;102680.25;5013128;28;20077;-72
2022/09/21 08:17:30;;;;;;;7.32;4.60;;;;;;;10.76;100.00;102668.09;5013281;28;20033;-72
2022/09/21 08:19:55;;;;;;;7.93;5.00;;;;;;;10.82;100.00;102667.22;5013707;28;20022;-72
2022/09/21 08:22:23;;;;;;;7.07;5.03;;;;;;;10.90;100.00;102676.84;5012327;28;20105;-72
2022/09/21 08:24:48;;;;;;;7.45;4.60;;;;;;;10.97;100.00;102683.84;5013442;28;20492;-72
2022/09/21 08:27:14;;;;;;;10.80;5.32;;;;;;;11.03;100.00;102675.16;5013495;28;20038;-72
2022/09/21 08:29:40;;;;;;;9.60;4.60;;;;;;;11.09;100.00;102671.72;5012557;28;20045;-72
2022/09/21 08:32:05;;;;;;;8.10;4.15;;;;;;;11.22;100.00;102686.56;5013353;28;20416;-72
2022/09/21 08:34:30;;;;;;;8.90;4.03;;;;;;;11.23;99.94;102676.09;5012612;28;20030;-72
2022/09/21 08:36:56;;;;;;;11.98;4.20;;;;;;;11.36;100.00;102681.38;5013029;28;20109;-72
2022/09/21 08:39:21;;;;;;;7.05;3.47;;;;;;;11.46;96.76;102681.38;5012826;28;20042;-72
2022/09/21 08:42:07;;;;;;;10.90;3.53;;;;;;;11.55;98.78;102688.38;5012490;28;20029;-72
2022/09/21 08:44:39;;;;;;;8.90;3.30;;;;;;;11.60;96.56;102691.84;4991765;28;20041;-72
2022/09/21 08:47:14;;;;;;;5.28;2.92;;;;;;;11.65;95.29;102684.91;5013020;28;20445;-72
2022/09/21 08:49:45;;;;;;;7.10;3.28;;;;;;;11.79;93.36;102687.53;5012457;28;20037;-72
2022/09/21 08:52:13;;;;;;;8.27;2.70;;;;;;;11.91;93.80;102692.81;5012811;28;20398;-72
2022/09/21 08:54:54;;;;;;;4.45;2.30;;;;;;;12.03;94.09;102683.19;5012911;28;20132;-72
2022/09/21 08:57:20;;;;;;;7.60;2.83;;;;;;;12.04;92.67;102687.59;5012221;28;20430;-72
2022/09/21 08:59:47;;;;;;;7.80;3.15;;;;;;;12.15;92.47;102691.06;5012881;28;20033;-72
2022/09/21 09:03:03;;;;;;;5.95;2.85;;;;;;;12.21;93.01;102680.59;5013156;28;20026;-72
2022/09/21 09:05:47;;;;;;;5.55;2.40;;;;;;;12.21;89.60;102656.19;5012369;28;20117;-72
2022/09/21 09:08:35;;;;;;;;;;;;;;;12.40;94.31;102687.53;5013305;28;20018;-72
2022/09/21 09:11:38;;;;;;;9.82;2.25;;;;;;;12.49;92.29;102685.75;5012249;28;19913;-72
2022/09/21 09:14:48;;;;;;;6.30;1.90;;;;;;;12.58;90.07;102691.84;5013196;28;20034;-72
2022/09/21 09:17:48;;;;;;;5.95;1.92;;;;;;;12.72;85.42;102696.19;5012432;28;20034;-72
2022/09/21 09:20:36;;;;;;;8.82;1.80;;;;;;;12.83;84.46;102687.44;4971253;28;20038;-72
2022/09/21 09:23:12;;;;;;;4.97;1.70;;;;;;;12.94;85.20;102691.75;5010320;28;20038;-72
2022/09/21 09:25:40;;;;;;;6.10;1.73;;;;;;;12.96;84.33;102698.72;5011849;28;20052;-72
2022/09/21 09:28:37;;;;;;;4.68;1.33;;;;;;;13.05;85.57;102692.59;5012818;28;20022;-72
2022/09/21 09:31:15;;;;;;;7.57;1.30;;;;;;;13.18;84.22;102699.50;5008515;28;20038;-72
2022/09/21 09:33:56;;;;;;;8.80;1.80;;;;;;;13.29;83.66;102694.25;5012259;28;20026;-72
2022/09/21 09:36:28;;;;;;;6.00;1.67;;;;;;;13.38;79.99;102688.97;5012516;28;20037;-72
2022/09/21 09:39:11;;;;;;;4.78;1.52;;;;;;;13.51;81.13;102690.63;5012067;28;20026;-72
2022/09/21 09:41:43;;;;;;;6.93;1.10;;;;;;;13.74;77.57;102690.47;5012306;28;20026;-72
2022/09/21 09:44:23;;;;;;;4.60;1.52;;;;;;;13.87;78.39;102693.00;5012714;28;20089;-72
2022/09/21 09:47:03;;;;;;;5.25;1.30;;;;;;;14.11;78.59;102697.19;5011952;28;20022;-72
2022/09/21 09:49:34;;;;;;;6.90;1.20;;;;;;;14.27;75.42;102694.41;5012129;28;20041;-72
2022/09/21 09:52:00;;;;;;;3.65;1.10;;;;;;;14.37;73.21;102692.56;5014030;28;20604;-72
2022/09/21 09:54:28;;;;;;;4.85;0.90;;;;;;;14.42;70.05;102692.50;5015918;28;20100;-72
2022/09/21 09:56:54;;;;;;;4.68;1.27;;;;;;;14.17;73.88;102671.75;5016119;28;20486;-72
2022/09/21 09:59:36;;;;;;;4.57;1.30;;;;;;;14.14;71.98;102692.78;5015601;28;20026;-72
2022/09/21 10:02:17;;;;;;;2.75;1.00;;;;;;;14.13;70.96;102688.41;5015973;28;20084;-72
2022/09/21 10:04:53;;;;;;;2.53;0.80;;;;;;;14.48;73.39;102695.06;5015848;28;20432;-72
2022/09/21 10:07:18;;;;;;;3.55;1.00;;;;;;;14.96;69.08;102692.81;5015507;28;20038;-72
2022/09/21 10:09:44;;;;;;;6.13;1.15;;;;;;;15.29;67.10;102686.25;5015767;28;20478;-71
2022/09/21 10:12:24;;;;;;;1.55;0.60;;;;;;;15.44;66.18;102696.53;5016001;28;20363;-72
2022/09/21 10:14:56;;;;;;;3.47;1.10;;;;;;;15.52;69.12;102687.69;5015069;28;20026;-72
2022/09/21 10:17:24;;;;;;;8.65;1.23;;;;;;;15.61;65.91;102693.66;5015646;28;20022;-72
2022/09/21 10:20:14;;;;;;;2.78;1.00;;;;;;;15.49;67.58;102672.81;5015759;28;20493;-72
2022/09/21 10:22:42;;;;;;;4.85;1.00;;;;;;;15.48;60.23;102684.22;5015208;28;20038;-72
2022/09/21 10:25:16;;;;;;;3.47;0.90;;;;;;;15.61;63.02;102679.66;5015519;28;20082;-72
2022/09/21 10:27:46;;;;;;;5.60;1.30;;;;;;;15.75;57.36;102677.69;5014907;28;20034;-72
2022/09/21 10:30:29;;;;;;;2.10;0.70;;;;;;;15.70;65.05;102686.59;5015192;28;20512;-72
2022/09/21 10:32:56;;;;;;;5.57;1.00;;;;;;;15.48;61.43;102671.09;5015571;28;20389;-72
2022/09/21 10:35:22;;;;;;;5.13;1.20;;;;;;;15.55;61.05;102683.25;5014478;28;20046;-72
2022/09/21 10:38:07;;;;;;;2.63;0.80;;;;;;;15.59;62.01;102671.78;5015431;28;20060;-71
2022/09/21 10:40:35;;;;;;;2.28;0.75;;;;;;;16.07;58.32;102656.13;5015288;28;20092;-72
2022/09/21 10:43:01;;;;;;;3.92;0.80;;;;;;;16.43;52.88;102666.88;5014793;28;20050;-72
2022/09/21 10:45:33;;;;;;;5.18;1.15;;;;;;;16.76;53.84;102667.16;5014988;28;20509;-72
2022/09/21 10:48:05;;;;;;;4.37;1.00;;;;;;;17.09;55.65;102671.69;5015167;28;20030;-73
2022/09/21 10:50:36;;;;;;;6.65;1.05;;;;;;;17.29;55.35;102654.56;5014868;28;20030;-72
2022/09/21 10:53:01;;;;;;;3.92;1.05;;;;;;;17.32;50.17;102657.16;5014950;28;20485;-72
2022/09/21 10:55:29;;;;;;;2.20;0.70;;;;;;;17.41;51.71;102661.34;5014300;28;20088;-72
2022/09/21 10:57:55;;;;;;;5.15;1.00;;;;;;;17.51;51.83;102658.44;5015055;28;20034;-72
2022/09/21 11:00:23;;;;;;;2.53;0.95;;;;;;;17.64;50.98;102658.16;5014667;28;20046;-72
2022/09/21 11:02:49;;;;;;;2.83;0.77;;;;;;;17.65;49.62;102658.13;5013687;28;20037;-72
2022/09/21 11:05:18;;;;;;;6.05;1.52;;;;;;;17.76;57.78;102653.50;5014832;28;20033;-72
2022/09/21 11:07:51;;;;;;;4.38;1.77;;;;;;;17.86;54.61;102645.34;5014656;28;20056;-72
2022/09/21 11:10:25;;;;;;;5.07;1.37;;;;;;;18.06;56.38;102655.41;5014102;28;20118;-72
2022/09/21 11:12:59;;;;;;;8.48;1.80;;;;;;;18.18;54.26;102655.06;5014660;28;20441;-72
2022/09/21 11:15:48;;;;;;;6.40;1.45;;;;;;;18.26;57.22;102653.09;5014379;28;20033;-72
2022/09/21 11:18:34;;;;;;;4.93;1.73;;;;;;;18.51;55.09;102657.69;5014032;28;20026;-72
2022/09/21 11:21:13;;;;;;;3.85;1.23;;;;;;;18.36;54.43;102643.16;5014607;28;20097;-72
2022/09/21 11:24:07;;;;;;;2.65;1.20;;;;;;;17.81;58.19;102649.88;5013939;28;20076;-72
2022/09/21 11:26:50;;;;;;;4.30;1.42;;;;;;;17.28;58.26;102659.00;5014374;28;20029;-73
2022/09/21 11:29:44;;;;;;;4.72;1.50;;;;;;;16.69;59.09;102657.63;5014444;28;20018;-72
2022/09/21 11:32:21;;;;;;;4.03;1.00;;;;;;;16.23;59.69;102658.50;5013907;28;20120;-72
2022/09/21 11:35:34;;;;;;;3.35;1.02;;;;;;;15.98;61.01;102656.28;5014599;28;20026;-72
2022/09/21 11:38:03;;;;;;;3.90;1.10;;;;;;;15.76;63.01;102655.78;5005006;28;20091;-72
2022/09/21 11:40:34;;;;;;;3.78;1.20;;;;;;;15.66;64.11;102660.34;5014004;28;20053;-72
2022/09/21 11:43:28;;;;;;;3.38;1.00;;;;;;;16.59;64.87;102647.25;5014567;28;20036;-72